sensor_id;sensor_type;location;lat;lon;timestamp;P1;durP1;ratioP1;P2;durP2;ratioP2
19810;SDS011;10065;49.632;8.346;2023-03-05T00:01:23;13.73;;;6.90;;
19810;SDS011;10065;49.632;8.346;2023-03-05T00:03:52;12.73;;;6.73;;
19810;SDS011;10065;49.632;8.346;2023-03-05T00:06:22;10.83;;;6.83;;
19810;SDS011;10065;49.632;8.346;2023-03-05T00:08:52;13.43;;;6.53;;
19810;SDS011;10065;49.632;8.346;2023-03-05T00:11:21;12.50;;;6.63;;
19810;SDS011;10065;49.632;8.346;2023-03-05T00:13:50;12.07;;;5.73;;
19810;SDS011;10065;49.632;8.346;2023-03-05T00:16:19;12.97;;;6.83;;
19810;SDS011;10065;49.632;8.346;2023-03-05T00:18:47;11.27;;;6.37;;
19810;SDS011;10065;49.632;8.346;2023-03-05T00:21:16;14.80;;;6.53;;
19810;SDS011;10065;49.632;8.346;2023-03-05T00:23:46;13.10;;;6.40;;
19810;SDS011;10065;49.632;8.346;2023-03-05T00:26:17;15.13;;;7.57;;
19810;SDS011;10065;49.632;8.346;2023-03-05T00:28:46;11.70;;;6.47;;
19810;SDS011;10065;49.632;8.346;2023-03-05T00:31:15;14.13;;;6.67;;
19810;SDS011;10065;49.632;8.346;2023-03-05T00:33:43;13.33;;;7.37;;
19810;SDS011;10065;49.632;8.346;2023-03-05T00:36:10;13.77;;;6.93;;
19810;SDS011;10065;49.632;8.346;2023-03-05T00:38:38;15.67;;;7.30;;
19810;SDS011;10065;49.632;8.346;2023-03-05T00:41:06;16.60;;;9.20;;
19810;SDS011;10065;49.632;8.346;2023-03-05T00:43:36;16.23;;;8.50;;
19810;SDS011;10065;49.632;8.346;2023-03-05T00:46:03;15.20;;;7.83;;
19810;SDS011;10065;49.632;8.346;2023-03-05T00:48:31;14.10;;;7.97;;
19810;SDS011;10065;49.632;8.346;2023-03-05T00:50:59;21.80;;;9.03;;
19810;SDS011;10065;49.632;8.346;2023-03-05T00:53:27;16.43;;;8.80;;
19810;SDS011;10065;49.632;8.346;2023-03-05T00:55:55;17.57;;;9.23;;
19810;SDS011;10065;49.632;8.346;2023-03-05T00:58:22;20.03;;;9.17;;
19810;SDS011;10065;49.632;8.346;2023-03-05T01:00:51;18.27;;;9.10;;
19810;SDS011;10065;49.632;8.346;2023-03-05T01:03:19;22.90;;;11.17;;
19810;SDS011;10065;49.632;8.346;2023-03-05T01:05:47;19.97;;;9.83;;
19810;SDS011;10065;49.632;8.346;2023-03-05T01:08:14;19.13;;;10.07;;
19810;SDS011;10065;49.632;8.346;2023-03-05T01:10:42;20.33;;;10.00;;
19810;SDS011;10065;49.632;8.346;2023-03-05T01:13:10;20.77;;;10.27;;
19810;SDS011;10065;49.632;8.346;2023-03-05T01:15:38;17.87;;;9.57;;
19810;SDS011;10065;49.632;8.346;2023-03-05T01:18:07;16.30;;;10.60;;
19810;SDS011;10065;49.632;8.346;2023-03-05T01:20:35;21.47;;;10.20;;
19810;SDS011;10065;49.632;8.346;2023-03-05T01:23:03;18.17;;;9.90;;
19810;SDS011;10065;49.632;8.346;2023-03-05T01:25:30;20.33;;;10.90;;
19810;SDS011;10065;49.632;8.346;2023-03-05T01:27:58;21.33;;;10.90;;
19810;SDS011;10065;49.632;8.346;2023-03-05T01:30:26;19.53;;;11.10;;
19810;SDS011;10065;49.632;8.346;2023-03-05T01:32:54;23.43;;;11.80;;
19810;SDS011;10065;49.632;8.346;2023-03-05T01:35:24;27.27;;;11.60;;
19810;SDS011;10065;49.632;8.346;2023-03-05T01:37:52;19.93;;;10.50;;
19810;SDS011;10065;49.632;8.346;2023-03-05T01:40:23;19.57;;;11.00;;
19810;SDS011;10065;49.632;8.346;2023-03-05T01:42:55;20.20;;;11.07;;
19810;SDS011;10065;49.632;8.346;2023-03-05T01:45:24;22.63;;;11.70;;
19810;SDS011;10065;49.632;8.346;2023-03-05T01:47:52;22.80;;;12.20;;
19810;SDS011;10065;49.632;8.346;2023-03-05T01:50:21;23.17;;;12.53;;
19810;SDS011;10065;49.632;8.346;2023-03-05T01:52:53;26.17;;;13.10;;
19810;SDS011;10065;49.632;8.346;2023-03-05T01:55:25;23.80;;;12.50;;
19810;SDS011;10065;49.632;8.346;2023-03-05T01:57:56;23.87;;;13.30;;
19810;SDS011;10065;49.632;8.346;2023-03-05T02:00:31;18.40;;;11.47;;
19810;SDS011;10065;49.632;8.346;2023-03-05T02:03:04;23.77;;;12.43;;
19810;SDS011;10065;49.632;8.346;2023-03-05T02:05:36;20.83;;;12.17;;
19810;SDS011;10065;49.632;8.346;2023-03-05T02:08:05;22.30;;;12.73;;
19810;SDS011;10065;49.632;8.346;2023-03-05T02:10:35;21.90;;;12.17;;
19810;SDS011;10065;49.632;8.346;2023-03-05T02:13:05;22.77;;;12.03;;
19810;SDS011;10065;49.632;8.346;2023-03-05T02:15:35;24.00;;;12.90;;
19810;SDS011;10065;49.632;8.346;2023-03-05T02:18:05;27.53;;;13.23;;
19810;SDS011;10065;49.632;8.346;2023-03-05T02:20:43;24.80;;;13.57;;
19810;SDS011;10065;49.632;8.346;2023-03-05T02:23:14;24.13;;;13.40;;
19810;SDS011;10065;49.632;8.346;2023-03-05T02:25:42;23.67;;;12.10;;
19810;SDS011;10065;49.632;8.346;2023-03-05T02:28:11;22.87;;;12.57;;
19810;SDS011;10065;49.632;8.346;2023-03-05T02:30:44;22.50;;;13.07;;
19810;SDS011;10065;49.632;8.346;2023-03-05T02:33:12;22.70;;;13.67;;
19810;SDS011;10065;49.632;8.346;2023-03-05T02:35:41;23.37;;;12.73;;
19810;SDS011;10065;49.632;8.346;2023-03-05T02:38:10;24.27;;;13.37;;
19810;SDS011;10065;49.632;8.346;2023-03-05T02:40:39;24.67;;;13.17;;
19810;SDS011;10065;49.632;8.346;2023-03-05T02:43:07;23.77;;;13.40;;
19810;SDS011;10065;49.632;8.346;2023-03-05T02:45:35;22.07;;;12.97;;
19810;SDS011;10065;49.632;8.346;2023-03-05T02:48:03;28.03;;;14.13;;
19810;SDS011;10065;49.632;8.346;2023-03-05T02:50:31;25.03;;;13.40;;
19810;SDS011;10065;49.632;8.346;2023-03-05T02:53:00;24.47;;;13.07;;
19810;SDS011;10065;49.632;8.346;2023-03-05T02:55:28;26.80;;;12.77;;
19810;SDS011;10065;49.632;8.346;2023-03-05T02:57:57;25.53;;;13.23;;
19810;SDS011;10065;49.632;8.346;2023-03-05T03:00:25;21.83;;;12.40;;
19810;SDS011;10065;49.632;8.346;2023-03-05T03:02:53;24.10;;;13.17;;
19810;SDS011;10065;49.632;8.346;2023-03-05T03:05:21;28.83;;;12.93;;
19810;SDS011;10065;49.632;8.346;2023-03-05T03:07:49;23.20;;;13.83;;
19810;SDS011;10065;49.632;8.346;2023-03-05T03:10:17;28.03;;;13.53;;
19810;SDS011;10065;49.632;8.346;2023-03-05T03:12:45;28.53;;;13.77;;
19810;SDS011;10065;49.632;8.346;2023-03-05T03:15:15;26.20;;;13.80;;
19810;SDS011;10065;49.632;8.346;2023-03-05T03:17:43;25.07;;;13.17;;
19810;SDS011;10065;49.632;8.346;2023-03-05T03:20:12;26.53;;;13.63;;
19810;SDS011;10065;49.632;8.346;2023-03-05T03:22:42;27.03;;;14.40;;
19810;SDS011;10065;49.632;8.346;2023-03-05T03:25:12;25.57;;;12.93;;
19810;SDS011;10065;49.632;8.346;2023-03-05T03:27:40;26.43;;;13.37;;
19810;SDS011;10065;49.632;8.346;2023-03-05T03:30:08;24.27;;;13.60;;
19810;SDS011;10065;49.632;8.346;2023-03-05T03:32:39;22.53;;;12.87;;
19810;SDS011;10065;49.632;8.346;2023-03-05T03:35:07;24.87;;;13.90;;
19810;SDS011;10065;49.632;8.346;2023-03-05T03:37:36;24.67;;;12.77;;
19810;SDS011;10065;49.632;8.346;2023-03-05T03:40:04;28.57;;;13.37;;
19810;SDS011;10065;49.632;8.346;2023-03-05T03:42:33;25.30;;;13.50;;
19810;SDS011;10065;49.632;8.346;2023-03-05T03:45:00;25.17;;;13.70;;
19810;SDS011;10065;49.632;8.346;2023-03-05T03:47:28;25.23;;;13.50;;
19810;SDS011;10065;49.632;8.346;2023-03-05T03:49:58;22.77;;;12.57;;
19810;SDS011;10065;49.632;8.346;2023-03-05T03:52:25;25.57;;;13.47;;
19810;SDS011;10065;49.632;8.346;2023-03-05T03:54:53;30.17;;;14.50;;
19810;SDS011;10065;49.632;8.346;2023-03-05T03:57:27;24.03;;;13.67;;
19810;SDS011;10065;49.632;8.346;2023-03-05T03:59:55;27.10;;;13.73;;
19810;SDS011;10065;49.632;8.346;2023-03-05T04:02:23;24.23;;;13.77;;
19810;SDS011;10065;49.632;8.346;2023-03-05T04:04:51;25.53;;;14.13;;
19810;SDS011;10065;49.632;8.346;2023-03-05T04:07:20;27.67;;;13.83;;
19810;SDS011;10065;49.632;8.346;2023-03-05T04:09:48;29.93;;;13.80;;
19810;SDS011;10065;49.632;8.346;2023-03-05T04:12:16;23.23;;;13.90;;
19810;SDS011;10065;49.632;8.346;2023-03-05T04:14:44;26.13;;;13.40;;
19810;SDS011;10065;49.632;8.346;2023-03-05T04:17:12;26.43;;;15.03;;
19810;SDS011;10065;49.632;8.346;2023-03-05T04:19:41;22.73;;;12.83;;
19810;SDS011;10065;49.632;8.346;2023-03-05T04:22:09;28.77;;;14.47;;
19810;SDS011;10065;49.632;8.346;2023-03-05T04:24:39;28.33;;;13.37;;
19810;SDS011;10065;49.632;8.346;2023-03-05T04:27:07;25.27;;;13.43;;
19810;SDS011;10065;49.632;8.346;2023-03-05T04:29:35;24.77;;;12.43;;
19810;SDS011;10065;49.632;8.346;2023-03-05T04:32:03;24.73;;;12.97;;
19810;SDS011;10065;49.632;8.346;2023-03-05T04:34:32;26.47;;;13.13;;
19810;SDS011;10065;49.632;8.346;2023-03-05T04:37:00;21.57;;;12.73;;
19810;SDS011;10065;49.632;8.346;2023-03-05T04:39:28;30.37;;;13.33;;
19810;SDS011;10065;49.632;8.346;2023-03-05T04:41:57;26.33;;;12.60;;
19810;SDS011;10065;49.632;8.346;2023-03-05T04:44:25;26.27;;;12.70;;
19810;SDS011;10065;49.632;8.346;2023-03-05T04:46:52;26.87;;;12.93;;
19810;SDS011;10065;49.632;8.346;2023-03-05T04:49:20;19.93;;;13.10;;
19810;SDS011;10065;49.632;8.346;2023-03-05T04:51:48;20.13;;;11.00;;
19810;SDS011;10065;49.632;8.346;2023-03-05T04:54:15;25.47;;;12.23;;
19810;SDS011;10065;49.632;8.346;2023-03-05T04:56:43;26.43;;;13.07;;
19810;SDS011;10065;49.632;8.346;2023-03-05T04:59:12;21.23;;;11.10;;
19810;SDS011;10065;49.632;8.346;2023-03-05T05:01:40;23.20;;;11.17;;
19810;SDS011;10065;49.632;8.346;2023-03-05T05:04:08;22.20;;;11.97;;
19810;SDS011;10065;49.632;8.346;2023-03-05T05:06:36;24.37;;;11.60;;
19810;SDS011;10065;49.632;8.346;2023-03-05T05:09:03;25.23;;;12.17;;
19810;SDS011;10065;49.632;8.346;2023-03-05T05:11:31;22.93;;;11.67;;
19810;SDS011;10065;49.632;8.346;2023-03-05T05:13:59;26.23;;;12.67;;
19810;SDS011;10065;49.632;8.346;2023-03-05T05:16:28;23.80;;;11.63;;
19810;SDS011;10065;49.632;8.346;2023-03-05T05:18:56;22.00;;;11.60;;
19810;SDS011;10065;49.632;8.346;2023-03-05T05:21:25;25.90;;;12.03;;
19810;SDS011;10065;49.632;8.346;2023-03-05T05:23:52;26.40;;;13.10;;
19810;SDS011;10065;49.632;8.346;2023-03-05T05:26:20;20.93;;;11.63;;
19810;SDS011;10065;49.632;8.346;2023-03-05T05:28:48;20.97;;;10.97;;
19810;SDS011;10065;49.632;8.346;2023-03-05T05:31:16;22.97;;;12.13;;
19810;SDS011;10065;49.632;8.346;2023-03-05T05:33:46;27.00;;;12.53;;
19810;SDS011;10065;49.632;8.346;2023-03-05T05:36:15;23.57;;;12.23;;
19810;SDS011;10065;49.632;8.346;2023-03-05T05:38:45;25.20;;;12.30;;
19810;SDS011;10065;49.632;8.346;2023-03-05T05:41:14;23.00;;;12.70;;
19810;SDS011;10065;49.632;8.346;2023-03-05T05:43:44;23.70;;;12.17;;
19810;SDS011;10065;49.632;8.346;2023-03-05T05:46:12;24.43;;;12.20;;
19810;SDS011;10065;49.632;8.346;2023-03-05T05:48:42;22.60;;;12.10;;
19810;SDS011;10065;49.632;8.346;2023-03-05T05:51:12;24.60;;;12.70;;
19810;SDS011;10065;49.632;8.346;2023-03-05T05:53:42;26.93;;;13.07;;
19810;SDS011;10065;49.632;8.346;2023-03-05T05:56:10;25.27;;;13.17;;
19810;SDS011;10065;49.632;8.346;2023-03-05T05:58:40;25.03;;;12.03;;
19810;SDS011;10065;49.632;8.346;2023-03-05T06:01:12;28.13;;;12.40;;
19810;SDS011;10065;49.632;8.346;2023-03-05T06:03:41;22.10;;;11.43;;
19810;SDS011;10065;49.632;8.346;2023-03-05T06:06:09;25.23;;;12.53;;
19810;SDS011;10065;49.632;8.346;2023-03-05T06:08:40;22.47;;;10.93;;
19810;SDS011;10065;49.632;8.346;2023-03-05T06:11:08;24.93;;;11.67;;
19810;SDS011;10065;49.632;8.346;2023-03-05T06:13:35;23.10;;;11.00;;
19810;SDS011;10065;49.632;8.346;2023-03-05T06:16:04;21.47;;;10.73;;
19810;SDS011;10065;49.632;8.346;2023-03-05T06:18:33;20.90;;;11.40;;
19810;SDS011;10065;49.632;8.346;2023-03-05T06:21:02;21.27;;;10.00;;
19810;SDS011;10065;49.632;8.346;2023-03-05T06:23:33;19.53;;;10.80;;
19810;SDS011;10065;49.632;8.346;2023-03-05T06:26:02;19.67;;;9.70;;
19810;SDS011;10065;49.632;8.346;2023-03-05T06:28:32;22.50;;;10.27;;
19810;SDS011;10065;49.632;8.346;2023-03-05T06:31:00;16.70;;;9.50;;
19810;SDS011;10065;49.632;8.346;2023-03-05T06:33:29;19.43;;;9.10;;
19810;SDS011;10065;49.632;8.346;2023-03-05T06:35:57;15.97;;;8.90;;
19810;SDS011;10065;49.632;8.346;2023-03-05T06:38:25;17.87;;;8.70;;
19810;SDS011;10065;49.632;8.346;2023-03-05T06:40:54;19.40;;;9.07;;
19810;SDS011;10065;49.632;8.346;2023-03-05T06:43:26;21.47;;;8.83;;
19810;SDS011;10065;49.632;8.346;2023-03-05T06:46:00;20.17;;;8.03;;
19810;SDS011;10065;49.632;8.346;2023-03-05T06:48:28;18.13;;;8.90;;
19810;SDS011;10065;49.632;8.346;2023-03-05T06:50:56;22.13;;;8.47;;
19810;SDS011;10065;49.632;8.346;2023-03-05T06:53:24;20.73;;;8.20;;
19810;SDS011;10065;49.632;8.346;2023-03-05T06:55:52;19.50;;;8.37;;
19810;SDS011;10065;49.632;8.346;2023-03-05T06:58:21;15.03;;;7.47;;
19810;SDS011;10065;49.632;8.346;2023-03-05T07:00:49;14.03;;;6.97;;
19810;SDS011;10065;49.632;8.346;2023-03-05T07:03:17;16.73;;;7.03;;
19810;SDS011;10065;49.632;8.346;2023-03-05T07:05:45;14.60;;;7.60;;
19810;SDS011;10065;49.632;8.346;2023-03-05T07:08:16;18.07;;;8.07;;
19810;SDS011;10065;49.632;8.346;2023-03-05T07:10:44;13.77;;;7.43;;
19810;SDS011;10065;49.632;8.346;2023-03-05T07:13:11;13.10;;;6.77;;
19810;SDS011;10065;49.632;8.346;2023-03-05T07:15:42;18.90;;;8.03;;
19810;SDS011;10065;49.632;8.346;2023-03-05T07:18:10;15.37;;;7.13;;
19810;SDS011;10065;49.632;8.346;2023-03-05T07:20:37;17.20;;;8.20;;
19810;SDS011;10065;49.632;8.346;2023-03-05T07:23:05;16.07;;;7.53;;
19810;SDS011;10065;49.632;8.346;2023-03-05T07:25:34;17.77;;;8.23;;
19810;SDS011;10065;49.632;8.346;2023-03-05T07:28:02;19.20;;;8.27;;
19810;SDS011;10065;49.632;8.346;2023-03-05T07:30:31;14.47;;;7.27;;
19810;SDS011;10065;49.632;8.346;2023-03-05T07:33:01;19.63;;;8.30;;
19810;SDS011;10065;49.632;8.346;2023-03-05T07:35:28;15.97;;;8.17;;
19810;SDS011;10065;49.632;8.346;2023-03-05T07:37:56;16.87;;;7.27;;
19810;SDS011;10065;49.632;8.346;2023-03-05T07:40:24;18.50;;;8.60;;
19810;SDS011;10065;49.632;8.346;2023-03-05T07:42:52;17.13;;;8.57;;
19810;SDS011;10065;49.632;8.346;2023-03-05T07:45:19;15.67;;;7.47;;
19810;SDS011;10065;49.632;8.346;2023-03-05T07:47:47;19.77;;;7.40;;
19810;SDS011;10065;49.632;8.346;2023-03-05T07:50:19;15.60;;;6.97;;
19810;SDS011;10065;49.632;8.346;2023-03-05T07:52:46;16.60;;;7.90;;
19810;SDS011;10065;49.632;8.346;2023-03-05T07:55:14;16.13;;;7.73;;
19810;SDS011;10065;49.632;8.346;2023-03-05T07:57:42;20.50;;;7.93;;
19810;SDS011;10065;49.632;8.346;2023-03-05T08:00:10;16.97;;;8.00;;
19810;SDS011;10065;49.632;8.346;2023-03-05T08:02:38;17.63;;;7.97;;
19810;SDS011;10065;49.632;8.346;2023-03-05T08:05:06;21.70;;;7.87;;
19810;SDS011;10065;49.632;8.346;2023-03-05T08:07:36;20.43;;;7.83;;
19810;SDS011;10065;49.632;8.346;2023-03-05T08:10:04;16.37;;;8.23;;
19810;SDS011;10065;49.632;8.346;2023-03-05T08:12:32;19.90;;;8.00;;
19810;SDS011;10065;49.632;8.346;2023-03-05T08:15:00;14.00;;;7.33;;
19810;SDS011;10065;49.632;8.346;2023-03-05T08:17:28;15.70;;;7.03;;
19810;SDS011;10065;49.632;8.346;2023-03-05T08:19:55;16.13;;;7.70;;
19810;SDS011;10065;49.632;8.346;2023-03-05T08:22:25;16.57;;;7.03;;
19810;SDS011;10065;49.632;8.346;2023-03-05T08:24:54;14.70;;;6.83;;
19810;SDS011;10065;49.632;8.346;2023-03-05T08:27:22;12.73;;;6.13;;
19810;SDS011;10065;49.632;8.346;2023-03-05T08:29:49;14.63;;;6.60;;
19810;SDS011;10065;49.632;8.346;2023-03-05T08:32:17;16.83;;;6.57;;
19810;SDS011;10065;49.632;8.346;2023-03-05T08:34:45;12.60;;;5.73;;
19810;SDS011;10065;49.632;8.346;2023-03-05T08:37:13;11.00;;;5.10;;
19810;SDS011;10065;49.632;8.346;2023-03-05T08:39:41;12.10;;;4.97;;
19810;SDS011;10065;49.632;8.346;2023-03-05T08:42:10;10.93;;;4.93;;
19810;SDS011;10065;49.632;8.346;2023-03-05T08:44:37;12.07;;;4.50;;
19810;SDS011;10065;49.632;8.346;2023-03-05T08:47:05;12.93;;;4.77;;
19810;SDS011;10065;49.632;8.346;2023-03-05T08:49:33;11.77;;;5.10;;
19810;SDS011;10065;49.632;8.346;2023-03-05T08:52:01;10.87;;;4.87;;
19810;SDS011;10065;49.632;8.346;2023-03-05T08:54:28;17.30;;;5.33;;
19810;SDS011;10065;49.632;8.346;2023-03-05T08:56:56;12.63;;;5.50;;
19810;SDS011;10065;49.632;8.346;2023-03-05T08:59:25;13.77;;;5.90;;
19810;SDS011;10065;49.632;8.346;2023-03-05T09:01:53;12.83;;;4.67;;
19810;SDS011;10065;49.632;8.346;2023-03-05T09:04:21;10.67;;;4.73;;
19810;SDS011;10065;49.632;8.346;2023-03-05T09:06:48;9.53;;;4.57;;
19810;SDS011;10065;49.632;8.346;2023-03-05T09:09:16;9.73;;;3.70;;
19810;SDS011;10065;49.632;8.346;2023-03-05T09:11:46;9.90;;;4.47;;
19810;SDS011;10065;49.632;8.346;2023-03-05T09:14:14;12.87;;;4.77;;
19810;SDS011;10065;49.632;8.346;2023-03-05T09:16:43;11.60;;;4.33;;
19810;SDS011;10065;49.632;8.346;2023-03-05T09:19:11;13.13;;;5.43;;
19810;SDS011;10065;49.632;8.346;2023-03-05T09:21:40;14.10;;;5.43;;
19810;SDS011;10065;49.632;8.346;2023-03-05T09:24:08;7.80;;;4.10;;
19810;SDS011;10065;49.632;8.346;2023-03-05T09:26:36;8.47;;;4.07;;
19810;SDS011;10065;49.632;8.346;2023-03-05T09:29:06;9.70;;;4.33;;
19810;SDS011;10065;49.632;8.346;2023-03-05T09:31:34;8.33;;;4.43;;
19810;SDS011;10065;49.632;8.346;2023-03-05T09:34:04;10.50;;;4.93;;
19810;SDS011;10065;49.632;8.346;2023-03-05T09:36:33;11.03;;;5.17;;
19810;SDS011;10065;49.632;8.346;2023-03-05T09:39:01;12.33;;;5.43;;
19810;SDS011;10065;49.632;8.346;2023-03-05T09:41:34;9.50;;;4.30;;
19810;SDS011;10065;49.632;8.346;2023-03-05T09:44:21;10.93;;;4.63;;
19810;SDS011;10065;49.632;8.346;2023-03-05T09:47:01;10.40;;;4.50;;
19810;SDS011;10065;49.632;8.346;2023-03-05T09:49:42;11.90;;;4.43;;
19810;SDS011;10065;49.632;8.346;2023-03-05T09:52:19;11.77;;;4.70;;
19810;SDS011;10065;49.632;8.346;2023-03-05T09:54:51;11.10;;;4.80;;
19810;SDS011;10065;49.632;8.346;2023-03-05T09:57:22;12.07;;;4.53;;
19810;SDS011;10065;49.632;8.346;2023-03-05T09:59:56;9.83;;;4.50;;
19810;SDS011;10065;49.632;8.346;2023-03-05T10:02:26;11.00;;;4.33;;
19810;SDS011;10065;49.632;8.346;2023-03-05T10:05:01;10.77;;;3.77;;
19810;SDS011;10065;49.632;8.346;2023-03-05T10:07:40;8.63;;;3.37;;
19810;SDS011;10065;49.632;8.346;2023-03-05T10:10:10;8.43;;;3.37;;
19810;SDS011;10065;49.632;8.346;2023-03-05T10:12:42;9.80;;;3.97;;
19810;SDS011;10065;49.632;8.346;2023-03-05T10:15:12;11.60;;;4.27;;
19810;SDS011;10065;49.632;8.346;2023-03-05T10:17:49;9.10;;;4.40;;
19810;SDS011;10065;49.632;8.346;2023-03-05T10:23:21;7.10;;;3.60;;
19810;SDS011;10065;49.632;8.346;2023-03-05T10:26:03;7.30;;;3.20;;
19810;SDS011;10065;49.632;8.346;2023-03-05T10:28:38;7.80;;;3.43;;
19810;SDS011;10065;49.632;8.346;2023-03-05T10:34:13;8.03;;;2.70;;
19810;SDS011;10065;49.632;8.346;2023-03-05T10:37:14;7.10;;;3.40;;
19810;SDS011;10065;49.632;8.346;2023-03-05T10:39:58;8.53;;;3.57;;
19810;SDS011;10065;49.632;8.346;2023-03-05T10:42:36;8.30;;;3.77;;
19810;SDS011;10065;49.632;8.346;2023-03-05T10:45:12;9.50;;;3.57;;
19810;SDS011;10065;49.632;8.346;2023-03-05T10:47:43;8.27;;;3.70;;
19810;SDS011;10065;49.632;8.346;2023-03-05T10:50:15;7.67;;;3.37;;
19810;SDS011;10065;49.632;8.346;2023-03-05T10:52:48;7.33;;;3.10;;
19810;SDS011;10065;49.632;8.346;2023-03-05T10:55:23;8.13;;;3.20;;
19810;SDS011;10065;49.632;8.346;2023-03-05T10:57:50;9.03;;;3.67;;
19810;SDS011;10065;49.632;8.346;2023-03-05T11:00:19;7.27;;;2.80;;
19810;SDS011;10065;49.632;8.346;2023-03-05T11:02:53;6.73;;;2.80;;
19810;SDS011;10065;49.632;8.346;2023-03-05T11:08:25;7.37;;;2.67;;
19810;SDS011;10065;49.632;8.346;2023-03-05T11:11:09;8.97;;;3.57;;
19810;SDS011;10065;49.632;8.346;2023-03-05T11:13:43;4.50;;;2.20;;
19810;SDS011;10065;49.632;8.346;2023-03-05T11:16:19;5.03;;;2.10;;
19810;SDS011;10065;49.632;8.346;2023-03-05T11:18:49;5.50;;;2.20;;
19810;SDS011;10065;49.632;8.346;2023-03-05T11:21:18;4.50;;;2.17;;
19810;SDS011;10065;49.632;8.346;2023-03-05T11:24:09;6.80;;;2.57;;
19810;SDS011;10065;49.632;8.346;2023-03-05T11:26:47;7.53;;;2.77;;
19810;SDS011;10065;49.632;8.346;2023-03-05T11:29:17;8.93;;;2.50;;
19810;SDS011;10065;49.632;8.346;2023-03-05T11:31:47;5.30;;;2.57;;
19810;SDS011;10065;49.632;8.346;2023-03-05T11:37:05;5.30;;;2.60;;
19810;SDS011;10065;49.632;8.346;2023-03-05T11:39:34;4.73;;;2.23;;
19810;SDS011;10065;49.632;8.346;2023-03-05T11:42:06;6.20;;;2.70;;
19810;SDS011;10065;49.632;8.346;2023-03-05T11:44:40;8.63;;;3.00;;
19810;SDS011;10065;49.632;8.346;2023-03-05T11:47:16;6.40;;;2.47;;
19810;SDS011;10065;49.632;8.346;2023-03-05T11:49:49;4.93;;;2.30;;
19810;SDS011;10065;49.632;8.346;2023-03-05T11:52:21;7.00;;;2.83;;
19810;SDS011;10065;49.632;8.346;2023-03-05T11:54:55;6.20;;;2.47;;
19810;SDS011;10065;49.632;8.346;2023-03-05T11:57:32;5.97;;;2.70;;
19810;SDS011;10065;49.632;8.346;2023-03-05T12:00:07;7.70;;;2.63;;
19810;SDS011;10065;49.632;8.346;2023-03-05T12:02:41;6.43;;;2.50;;
19810;SDS011;10065;49.632;8.346;2023-03-05T12:05:12;6.77;;;2.70;;
19810;SDS011;10065;49.632;8.346;2023-03-05T12:07:41;6.30;;;2.50;;
19810;SDS011;10065;49.632;8.346;2023-03-05T12:10:15;5.43;;;2.23;;
19810;SDS011;10065;49.632;8.346;2023-03-05T12:12:46;7.07;;;2.40;;
19810;SDS011;10065;49.632;8.346;2023-03-05T12:15:24;9.17;;;3.07;;
19810;SDS011;10065;49.632;8.346;2023-03-05T12:18:03;9.23;;;2.87;;
19810;SDS011;10065;49.632;8.346;2023-03-05T12:20:37;5.30;;;1.97;;
19810;SDS011;10065;49.632;8.346;2023-03-05T12:23:13;7.70;;;3.77;;
19810;SDS011;10065;49.632;8.346;2023-03-05T12:25:47;6.40;;;2.77;;
19810;SDS011;10065;49.632;8.346;2023-03-05T12:28:16;5.73;;;2.27;;
19810;SDS011;10065;49.632;8.346;2023-03-05T12:31:25;5.83;;;2.40;;
19810;SDS011;10065;49.632;8.346;2023-03-05T12:34:14;6.23;;;2.73;;
19810;SDS011;10065;49.632;8.346;2023-03-05T12:37:02;6.97;;;2.60;;
19810;SDS011;10065;49.632;8.346;2023-03-05T12:39:46;7.40;;;3.63;;
19810;SDS011;10065;49.632;8.346;2023-03-05T12:56:56;8.57;;;4.40;;
19810;SDS011;10065;49.632;8.346;2023-03-05T12:59:31;11.70;;;4.43;;
19810;SDS011;10065;49.632;8.346;2023-03-05T13:02:13;11.43;;;4.57;;
19810;SDS011;10065;49.632;8.346;2023-03-05T13:04:56;10.73;;;4.67;;
19810;SDS011;10065;49.632;8.346;2023-03-05T13:07:28;11.07;;;4.63;;
19810;SDS011;10065;49.632;8.346;2023-03-05T13:09:57;10.20;;;4.13;;
19810;SDS011;10065;49.632;8.346;2023-03-05T13:12:26;8.83;;;4.20;;
19810;SDS011;10065;49.632;8.346;2023-03-05T13:14:58;8.67;;;4.10;;
19810;SDS011;10065;49.632;8.346;2023-03-05T13:17:34;10.70;;;4.30;;
19810;SDS011;10065;49.632;8.346;2023-03-05T13:23:01;14.05;;;5.80;;
19810;SDS011;10065;49.632;8.346;2023-03-05T13:25:40;13.17;;;5.20;;
19810;SDS011;10065;49.632;8.346;2023-03-05T13:28:10;9.90;;;4.10;;
19810;SDS011;10065;49.632;8.346;2023-03-05T13:30:43;11.10;;;5.20;;
19810;SDS011;10065;49.632;8.346;2023-03-05T13:33:12;10.67;;;4.80;;
19810;SDS011;10065;49.632;8.346;2023-03-05T13:35:44;14.70;;;5.23;;
19810;SDS011;10065;49.632;8.346;2023-03-05T13:38:20;11.13;;;4.67;;
19810;SDS011;10065;49.632;8.346;2023-03-05T13:41:00;11.03;;;5.27;;
19810;SDS011;10065;49.632;8.346;2023-03-05T13:43:29;17.43;;;5.73;;
19810;SDS011;10065;49.632;8.346;2023-03-05T13:45:59;12.83;;;5.33;;
19810;SDS011;10065;49.632;8.346;2023-03-05T13:48:32;18.27;;;5.93;;
19810;SDS011;10065;49.632;8.346;2023-03-05T13:51:00;14.53;;;5.20;;
19810;SDS011;10065;49.632;8.346;2023-03-05T13:53:32;11.40;;;5.33;;
19810;SDS011;10065;49.632;8.346;2023-03-05T13:56:01;11.30;;;5.40;;
19810;SDS011;10065;49.632;8.346;2023-03-05T13:58:41;11.47;;;4.87;;
19810;SDS011;10065;49.632;8.346;2023-03-05T14:01:17;11.70;;;4.93;;
19810;SDS011;10065;49.632;8.346;2023-03-05T14:03:51;9.17;;;4.67;;
19810;SDS011;10065;49.632;8.346;2023-03-05T14:06:21;12.00;;;4.87;;
19810;SDS011;10065;49.632;8.346;2023-03-05T14:08:53;10.97;;;4.60;;
19810;SDS011;10065;49.632;8.346;2023-03-05T14:11:28;11.53;;;4.70;;
19810;SDS011;10065;49.632;8.346;2023-03-05T14:13:58;12.83;;;5.03;;
19810;SDS011;10065;49.632;8.346;2023-03-05T14:16:33;10.23;;;4.90;;
19810;SDS011;10065;49.632;8.346;2023-03-05T14:19:02;520.07;;;61.23;;
19810;SDS011;10065;49.632;8.346;2023-03-05T14:21:42;23.07;;;6.87;;
19810;SDS011;10065;49.632;8.346;2023-03-05T14:24:13;9.23;;;4.50;;
19810;SDS011;10065;49.632;8.346;2023-03-05T14:26:47;11.17;;;4.57;;
19810;SDS011;10065;49.632;8.346;2023-03-05T14:29:18;11.63;;;4.70;;
19810;SDS011;10065;49.632;8.346;2023-03-05T14:31:51;9.37;;;4.57;;
19810;SDS011;10065;49.632;8.346;2023-03-05T14:34:22;10.53;;;4.53;;
19810;SDS011;10065;49.632;8.346;2023-03-05T14:36:54;12.30;;;4.70;;
19810;SDS011;10065;49.632;8.346;2023-03-05T14:39:28;8.47;;;4.33;;
19810;SDS011;10065;49.632;8.346;2023-03-05T14:42:20;9.00;;;4.50;;
19810;SDS011;10065;49.632;8.346;2023-03-05T14:44:52;8.07;;;3.70;;
19810;SDS011;10065;49.632;8.346;2023-03-05T14:47:22;9.47;;;4.53;;
19810;SDS011;10065;49.632;8.346;2023-03-05T14:49:50;7.97;;;4.03;;
19810;SDS011;10065;49.632;8.346;2023-03-05T14:52:18;9.30;;;4.23;;
19810;SDS011;10065;49.632;8.346;2023-03-05T14:54:48;12.27;;;4.33;;
19810;SDS011;10065;49.632;8.346;2023-03-05T14:57:17;9.67;;;4.43;;
19810;SDS011;10065;49.632;8.346;2023-03-05T14:59:46;9.63;;;4.20;;
19810;SDS011;10065;49.632;8.346;2023-03-05T15:02:14;10.97;;;4.67;;
19810;SDS011;10065;49.632;8.346;2023-03-05T15:04:45;8.93;;;4.50;;
19810;SDS011;10065;49.632;8.346;2023-03-05T15:07:15;11.40;;;4.30;;
19810;SDS011;10065;49.632;8.346;2023-03-05T15:09:44;8.73;;;3.77;;
19810;SDS011;10065;49.632;8.346;2023-03-05T15:12:13;9.43;;;4.37;;
19810;SDS011;10065;49.632;8.346;2023-03-05T15:14:42;8.80;;;3.80;;
19810;SDS011;10065;49.632;8.346;2023-03-05T15:17:14;10.03;;;4.10;;
19810;SDS011;10065;49.632;8.346;2023-03-05T15:19:45;12.63;;;5.50;;
19810;SDS011;10065;49.632;8.346;2023-03-05T15:22:13;10.00;;;5.07;;